Time;durP1;ratioP1;P1;durP2;ratioP2;P2;SDS_P1;SDS_P2;PMS_P1;PMS_P2;Temp;Humidity;BMP_temperature;BMP_pressure;BME280_temperature;BME280_humidity;BME280_pressure;Samples;Min_cycle;Max_cycle;Signal;HPM_P1;HPM_P2
2021/09/06 12:17:47;;;;;;;8.95;5.43;;;27.70;80.40;;;;;;14820736;22;1313533;-66
2021/09/06 12:23:36;;;;;;;19.48;5.38;;;28.00;79.60;;;;;;14743803;23;20029;-66
2021/09/06 12:29:28;;;;;;;9.23;5.53;;;28.20;79.90;;;;;;14707473;23;20115;-65
2021/09/06 12:35:16;;;;;;;8.90;5.47;;;28.30;76.70;;;;;;14706964;23;20031;-67
2021/09/06 12:41:03;;;;;;;6.78;5.55;;;28.50;77.30;;;;;;14709550;23;20033;-67
2021/09/06 12:46:50;;;;;;;10.98;5.97;;;28.60;76.50;;;;;;14722000;22;20108;-66
2021/09/06 12:52:38;;;;;;;11.20;5.20;;;28.80;76.20;;;;;;14714859;22;20466;-66
2021/09/06 12:58:25;;;;;;;7.05;5.75;;;28.90;75.10;;;;;;14766489;22;20020;-65
2021/09/06 13:04:12;;;;;;;9.50;5.18;;;29.10;74.20;;;;;;14786261;22;20515;-66
2021/09/06 13:10:00;;;;;;;9.15;5.53;;;29.30;72.80;;;;;;14740232;22;20021;-66
2021/09/06 13:15:48;;;;;;;7.15;5.20;;;29.30;72.20;;;;;;14705284;23;20359;-67
2021/09/06 13:21:35;;;;;;;7.10;5.53;;;29.50;72.50;;;;;;14689766;23;20021;-67
2021/09/06 13:27:23;;;;;;;7.07;5.35;;;29.60;70.60;;;;;;14690796;22;20071;-66
2021/09/06 13:33:10;;;;;;;6.97;5.28;;;29.70;69.80;;;;;;14784337;23;20025;-67
2021/09/06 13:38:58;;;;;;;7.20;5.10;;;29.80;69.50;;;;;;14712805;23;20033;-67
2021/09/06 13:44:46;;;;;;;6.47;5.25;;;29.80;69.50;;;;;;14751690;22;20032;-67
2021/09/06 13:50:33;;;;;;;10.32;5.30;;;29.90;70.40;;;;;;14779664;23;20120;-67
2021/09/06 13:56:21;;;;;;;11.10;5.43;;;30.00;70.40;;;;;;14784594;23;20110;-67
2021/09/06 14:02:09;;;;;;;7.47;5.25;;;30.10;70.10;;;;;;14761280;22;20048;-67
2021/09/06 14:07:56;;;;;;;9.70;5.43;;;30.10;71.00;;;;;;14713424;22;20033;-67
2021/09/06 14:13:43;;;;;;;7.68;5.10;;;29.90;71.30;;;;;;14713076;22;20017;-68
2021/09/06 14:19:31;;;;;;;9.25;5.20;;;29.70;72.50;;;;;;14650136;22;20451;-66
2021/09/06 14:25:18;;;;;;;6.63;4.80;;;30.00;70.90;;;;;;14726433;23;20031;-66
2021/09/06 14:31:05;;;;;;;5.88;4.78;;;30.20;69.60;;;;;;14689736;23;20029;-66
2021/09/06 14:36:53;;;;;;;6.32;4.60;;;30.50;67.70;;;;;;14689375;23;20155;-67
2021/09/06 14:42:40;;;;;;;5.20;4.50;;;30.70;66.80;;;;;;14706203;22;20021;-66
2021/09/06 14:48:27;;;;;;;5.80;4.50;;;30.70;66.80;;;;;;14712493;22;20044;-66
2021/09/06 14:54:16;;;;;;;7.82;4.93;;;30.60;65.50;;;;;;14714141;23;20483;-66
2021/09/06 15:00:02;;;;;;;7.85;5.03;;;30.60;66.20;;;;;;14713027;22;20025;-66
2021/09/06 15:05:49;;;;;;;7.28;4.47;;;30.70;66.00;;;;;;14712398;22;20142;-66
2021/09/06 15:11:38;;;;;;;5.10;4.28;;;30.70;65.20;;;;;;14740981;23;20029;-66
2021/09/06 15:17:24;;;;;;;13.70;4.93;;;30.80;63.70;;;;;;14758006;22;20362;-67
2021/09/06 15:23:11;;;;;;;11.88;5.28;;;30.90;64.50;;;;;;14840231;22;20028;-66
2021/09/06 15:29:00;;;;;;;5.53;4.43;;;31.00;65.10;;;;;;14855653;22;20028;-66
2021/09/06 15:34:46;;;;;;;7.80;4.65;;;31.00;64.80;;;;;;14855347;22;20023;-66
2021/09/06 15:40:33;;;;;;;7.70;4.45;;;31.10;64.50;;;;;;14854881;22;20024;-67
2021/09/06 15:46:22;;;;;;;5.00;4.50;;;31.10;64.20;;;;;;14855321;22;20111;-67
2021/09/06 15:52:10;;;;;;;7.35;5.65;;;31.10;63.70;;;;;;14855145;22;20086;-67
2021/09/06 15:57:57;;;;;;;5.55;4.85;;;31.20;62.10;;;;;;14855464;22;20024;-66
2021/09/06 16:03:53;;;;;;;5.20;4.50;;;31.20;63.30;;;;;;14855249;22;20386;-67
2021/09/06 16:09:40;;;;;;;5.82;4.68;;;31.30;61.60;;;;;;14767211;22;20063;-66
2021/09/06 16:15:27;;;;;;;12.07;4.93;;;31.50;62.20;;;;;;14848135;22;20103;-66
2021/09/06 16:21:15;;;;;;;10.05;4.63;;;31.60;63.30;;;;;;14833630;23;20031;-66
2021/09/06 16:27:02;;;;;;;9.02;4.53;;;31.60;62.90;;;;;;14827622;23;20375;-65
2021/09/06 16:32:49;;;;;;;6.45;4.55;;;31.80;64.20;;;;;;14830290;22;20371;-66
2021/09/06 16:45:21;;;;;;;7.50;5.20;;;35.30;55.30;;;;;;14855418;22;20028;-69
2021/09/06 16:51:08;;;;;;;8.65;5.07;;;36.90;52.40;;;;;;14861443;23;20540;-69
2021/09/06 16:56:55;;;;;;;5.40;4.53;;;38.10;50.20;;;;;;14855913;22;20484;-68
2021/09/06 17:02:44;;;;;;;8.10;6.50;;;38.10;49.20;;;;;;14858548;22;20418;-68
2021/09/06 17:08:31;;;;;;;10.98;5.22;;;38.10;49.80;;;;;;14858471;22;20030;-69
2021/09/06 17:14:18;;;;;;;7.75;4.60;;;38.30;50.00;;;;;;14857486;22;20389;-70
2021/09/06 17:20:08;;;;;;;8.85;4.90;;;37.70;52.30;;;;;;14836645;22;20042;-71
2021/09/06 17:25:55;;;;;;;6.90;4.82;;;35.70;56.70;;;;;;14831761;22;20421;-70
2021/09/06 17:31:42;;;;;;;9.90;5.55;;;33.60;60.40;;;;;;14833550;23;20481;-70
2021/09/06 17:37:33;;;;;;;7.82;5.00;;;32.20;64.60;;;;;;14831900;22;20035;-71
2021/09/06 17:43:20;;;;;;;6.07;5.15;;;31.20;67.90;;;;;;14826051;23;20480;-71
2021/09/06 17:49:07;;;;;;;9.50;5.43;;;30.40;70.40;;;;;;14828633;22;20020;-71
2021/09/06 17:54:55;;;;;;;5.20;4.60;;;29.80;72.10;;;;;;14828414;23;20408;-66
2021/09/06 18:00:42;;;;;;;7.80;5.22;;;29.30;74.10;;;;;;14829388;22;20026;-67
2021/09/06 18:06:29;;;;;;;7.93;5.20;;;28.90;75.60;;;;;;14812634;22;20074;-66
2021/09/06 18:12:17;;;;;;;8.88;5.35;;;28.50;76.70;;;;;;14858230;23;20020;-66
2021/09/06 18:18:04;;;;;;;7.13;5.15;;;28.20;77.80;;;;;;14833439;23;20058;-66
2021/09/06 18:23:51;;;;;;;8.10;5.15;;;27.90;78.90;;;;;;14856514;23;20103;-66
2021/09/06 18:29:39;;;;;;;11.02;5.28;;;27.70;79.90;;;;;;14855945;22;20378;-66
2021/09/06 18:35:26;;;;;;;6.95;5.45;;;27.50;80.50;;;;;;14856200;22;20098;-65
2021/09/06 18:41:13;;;;;;;8.23;5.18;;;27.20;79.90;;;;;;14856185;22;20103;-65
2021/09/06 18:47:01;;;;;;;7.53;5.20;;;26.80;81.00;;;;;;14855890;22;20024;-66
2021/09/06 18:52:48;;;;;;;7.90;5.20;;;26.40;81.60;;;;;;14855825;22;20024;-65
2021/09/06 18:58:36;;;;;;;13.55;5.80;;;26.20;81.30;;;;;;14855612;22;20605;-66
2021/09/06 19:04:24;;;;;;;8.77;5.03;;;26.00;82.30;;;;;;14855570;22;20024;-66
2021/09/06 19:10:13;;;;;;;9.80;5.65;;;26.00;82.70;;;;;;14855196;22;20090;-66
2021/09/06 19:16:00;;;;;;;8.52;5.53;;;26.00;83.60;;;;;;14846041;22;20032;-67
2021/09/06 19:21:48;;;;;;;8.82;5.70;;;25.90;83.60;;;;;;14829583;23;20473;-66
2021/09/06 19:27:35;;;;;;;8.77;6.18;;;25.90;82.90;;;;;;14833512;23;20631;-66
2021/09/06 19:33:22;;;;;;;28.33;5.90;;;25.80;83.40;;;;;;14829775;23;20392;-66
2021/09/06 19:39:10;;;;;;;11.15;5.20;;;25.80;83.90;;;;;;14853087;22;20103;-67
2021/09/06 19:44:57;;;;;;;9.30;5.72;;;25.70;83.60;;;;;;14855176;22;20115;-66
2021/09/06 19:50:44;;;;;;;10.75;5.43;;;25.60;84.20;;;;;;14854731;22;20024;-66
2021/09/06 19:56:34;;;;;;;10.00;5.85;;;25.60;84.70;;;;;;14856102;22;20047;-66
2021/09/06 20:02:21;;;;;;;7.22;5.93;;;25.50;85.70;;;;;;14860005;22;20099;-66
2021/09/06 20:08:07;;;;;;;11.40;5.50;;;25.50;85.20;;;;;;14860070;22;20024;-66
2021/09/06 20:13:59;;;;;;;10.05;6.30;;;25.50;85.30;;;;;;14828702;22;20625;-66
2021/09/06 20:19:46;;;;;;;8.82;6.47;;;25.40;85.80;;;;;;14840820;22;20028;-66
2021/09/06 20:25:33;;;;;;;11.95;6.40;;;25.30;86.10;;;;;;14859393;22;20020;-65
2021/09/06 20:31:21;;;;;;;9.75;6.82;;;25.20;86.50;;;;;;14858282;22;20024;-66
2021/09/06 20:37:08;;;;;;;10.43;6.32;;;25.20;87.30;;;;;;14857395;22;20573;-66
2021/09/06 20:48:57;;;;;;;11.05;6.38;;;25.10;87.80;;;;;;14872820;22;20027;-65
2021/09/06 20:54:44;;;;;;;14.30;7.15;;;25.10;88.30;;;;;;14858615;22;20024;-65
2021/09/06 21:00:31;;;;;;;10.48;6.35;;;25.00;87.40;;;;;;14858561;22;20469;-65
2021/09/06 21:06:19;;;;;;;10.63;6.68;;;24.90;87.60;;;;;;14858636;22;20430;-66
2021/09/06 21:12:06;;;;;;;10.45;6.28;;;24.90;87.90;;;;;;14860479;23;20473;-65
2021/09/06 21:17:53;;;;;;;10.70;6.53;;;24.90;88.20;;;;;;14839508;22;20557;-65
2021/09/06 21:23:41;;;;;;;10.23;6.22;;;24.80;87.60;;;;;;14833879;22;20031;-64
2021/09/06 21:29:28;;;;;;;9.52;6.10;;;24.80;87.60;;;;;;14834822;23;20020;-63
2021/09/06 21:35:15;;;;;;;11.23;6.32;;;24.70;87.40;;;;;;14848472;23;20370;-63
2021/09/06 21:41:03;;;;;;;7.65;5.90;;;24.70;87.00;;;;;;14856086;22;20099;-63
2021/09/06 21:46:50;;;;;;;9.35;6.47;;;24.70;86.50;;;;;;14857489;22;20102;-63
2021/09/06 21:52:37;;;;;;;11.35;6.50;;;24.60;87.50;;;;;;14857732;22;20107;-64
2021/09/06 21:58:25;;;;;;;14.05;6.20;;;24.50;87.60;;;;;;14857758;22;20028;-64
